Time;durP1;ratioP1;P1;durP2;ratioP2;P2;SDS_P1;SDS_P2;PMS_P1;PMS_P2;Temp;Humidity;BMP_temperature;BMP_pressure;BME280_temperature;BME280_humidity;BME280_pressure;Samples;Min_cycle;Max_cycle;Signal;HPM_P1;HPM_P2
2022/12/07 00:01:32;;;;;;;15.07;2.47;;;;;;;;;;5097396;28;20048;-68
2022/12/07 00:04:04;;;;;;;14.75;1.83;;;;;;;;;;5080349;28;20047;-67
2022/12/07 00:06:31;;;;;;;10.70;1.10;;;;;;;;;;5097680;28;20036;-67
2022/12/07 00:08:57;;;;;;;15.50;1.95;;;;;;;;;;5078012;28;20423;-67
2022/12/07 00:11:24;;;;;;;12.77;1.77;;;;;;;;;;5099480;28;20046;-67
2022/12/07 00:13:57;;;;;;;9.20;1.63;;;;;;;;;;5098152;28;20479;-68
2022/12/07 00:16:24;;;;;;;18.48;1.33;;;;;;;;;;5079266;28;20080;-68
2022/12/07 00:18:51;;;;;;;11.27;1.10;;;;;;;;;;5097322;28;20051;-68
2022/12/07 00:21:18;;;;;;;9.88;1.13;;;;;;;;;;5094689;28;20456;-67
2022/12/07 00:23:46;;;;;;;8.27;1.33;;;;;;;;;;5093605;28;20144;-67
2022/12/07 00:26:15;;;;;;;13.15;1.70;;;;;;;;;;5097023;28;20042;-68
2022/12/07 00:28:41;;;;;;;11.45;1.38;;;;;;;;;;5081675;28;20043;-68
2022/12/07 00:31:09;;;;;;;7.68;1.38;;;;;;;;;;5098261;28;20433;-68
2022/12/07 00:33:35;;;;;;;13.48;1.85;;;;;;;;;;5080517;28;20497;-68
2022/12/07 00:36:02;;;;;;;12.93;2.03;;;;;;;;;;5076953;28;20407;-68
2022/12/07 00:38:29;;;;;;;12.90;1.38;;;;;;;;;;5099173;28;20074;-68
2022/12/07 00:40:56;;;;;;;18.33;1.95;;;;;;;;;;5097193;28;20078;-68
2022/12/07 00:43:23;;;;;;;11.38;1.55;;;;;;;;;;5099639;28;20052;-68
2022/12/07 00:45:49;;;;;;;6.80;1.55;;;;;;;;;;5098960;28;20044;-68
2022/12/07 00:48:15;;;;;;;13.30;1.58;;;;;;;;;;5097805;28;20035;-68
2022/12/07 00:50:41;;;;;;;9.20;2.05;;;;;;;;;;5100710;28;20046;-68
2022/12/07 00:53:07;;;;;;;14.40;1.75;;;;;;;;;;5094956;28;20449;-68
2022/12/07 00:55:34;;;;;;;8.40;1.40;;;;;;;;;;5077675;28;20562;-68
2022/12/07 00:58:00;;;;;;;11.88;1.98;;;;;;;;;;5099910;28;20063;-68
2022/12/07 01:00:26;;;;;;;12.27;1.63;;;;;;;;;;5101488;28;20100;-68
2022/12/07 01:02:52;;;;;;;8.95;1.50;;;;;;;;;;5096610;28;20108;-68
2022/12/07 01:05:19;;;;;;;13.90;1.48;;;;;;;;;;5095355;28;20047;-68
2022/12/07 01:07:46;;;;;;;10.70;1.60;;;;;;;;;;5101417;28;20036;-68
2022/12/07 01:10:13;;;;;;;11.32;1.42;;;;;;;;;;5098295;28;20050;-68
2022/12/07 01:12:39;;;;;;;17.80;1.80;;;;;;;;;;5081509;28;20068;-68
2022/12/07 01:15:05;;;;;;;15.98;2.03;;;;;;;;;;5077220;28;20043;-68
2022/12/07 01:17:32;;;;;;;17.30;1.75;;;;;;;;;;5097276;28;20047;-68
2022/12/07 01:19:58;;;;;;;12.77;1.40;;;;;;;;;;5096144;28;20117;-68
2022/12/07 01:22:24;;;;;;;10.23;1.63;;;;;;;;;;5078449;28;20399;-68
2022/12/07 01:24:50;;;;;;;7.95;1.40;;;;;;;;;;5093688;28;20115;-68
2022/12/07 01:27:16;;;;;;;14.00;1.60;;;;;;;;;;5074930;28;20046;-67
2022/12/07 01:29:42;;;;;;;7.65;1.10;;;;;;;;;;5098424;28;20036;-67
2022/12/07 01:32:08;;;;;;;13.38;1.30;;;;;;;;;;5076147;28;20367;-67
2022/12/07 01:34:35;;;;;;;10.93;1.23;;;;;;;;;;5094623;28;20436;-67
2022/12/07 01:37:01;;;;;;;7.30;1.27;;;;;;;;;;5094213;28;20376;-68
2022/12/07 01:39:27;;;;;;;7.82;1.10;;;;;;;;;;5075873;28;20055;-68
2022/12/07 01:41:53;;;;;;;4.38;0.90;;;;;;;;;;5095633;28;20387;-68
2022/12/07 01:44:19;;;;;;;7.63;1.02;;;;;;;;;;5073893;28;20055;-68
2022/12/07 01:46:48;;;;;;;6.20;0.90;;;;;;;;;;5099451;28;21953;-68
2022/12/07 01:49:18;;;;;;;5.28;1.88;;;;;;;;;;5086595;28;20066;-68
2022/12/07 01:51:45;;;;;;;9.77;1.10;;;;;;;;;;5103608;28;20395;-68
2022/12/07 01:54:13;;;;;;;9.95;1.40;;;;;;;;;;5084350;28;20062;-67
2022/12/07 01:56:41;;;;;;;8.45;1.27;;;;;;;;;;5096800;28;20493;-67
2022/12/07 01:59:07;;;;;;;9.68;1.20;;;;;;;;;;5098823;28;20120;-68
2022/12/07 02:01:33;;;;;;;4.45;1.35;;;;;;;;;;5078001;28;20051;-67
2022/12/07 02:03:59;;;;;;;11.10;1.38;;;;;;;;;;5074999;28;20071;-68
2022/12/07 02:06:26;;;;;;;9.50;1.20;;;;;;;;;;5063795;28;20050;-67
2022/12/07 02:08:52;;;;;;;10.43;1.05;;;;;;;;;;5094982;28;20047;-67
2022/12/07 02:11:19;;;;;;;13.85;1.60;;;;;;;;;;5099376;28;20122;-68
2022/12/07 02:13:46;;;;;;;8.25;1.20;;;;;;;;;;5099073;28;20469;-68
2022/12/07 02:16:31;;;;;;;12.73;1.45;;;;;;;;;;5085505;28;20035;-67
2022/12/07 02:19:05;;;;;;;9.00;1.58;;;;;;;;;;5100354;28;20439;-67
2022/12/07 02:21:32;;;;;;;8.80;0.80;;;;;;;;;;5097031;28;20383;-67
2022/12/07 02:24:16;;;;;;;12.73;1.55;;;;;;;;;;5100332;28;20506;-68
2022/12/07 02:26:42;;;;;;;13.25;2.40;;;;;;;;;;5075441;28;20057;-68
2022/12/07 02:29:12;;;;;;;11.07;1.58;;;;;;;;;;5081216;28;20046;-68
2022/12/07 02:31:40;;;;;;;9.80;1.30;;;;;;;;;;5103162;28;20482;-68
2022/12/07 02:34:10;;;;;;;11.77;1.40;;;;;;;;;;5099295;28;20368;-68
2022/12/07 02:36:40;;;;;;;14.85;2.65;;;;;;;;;;5100034;28;20491;-68
2022/12/07 02:39:12;;;;;;;14.57;1.70;;;;;;;;;;5102536;28;20092;-68
2022/12/07 02:41:40;;;;;;;13.73;1.45;;;;;;;;;;5101188;28;20051;-68
2022/12/07 02:44:08;;;;;;;12.60;1.85;;;;;;;;;;5099346;28;20448;-67
2022/12/07 02:46:37;;;;;;;15.02;1.90;;;;;;;;;;5082553;28;20044;-68
2022/12/07 02:49:04;;;;;;;11.85;1.15;;;;;;;;;;5081832;28;20047;-68
2022/12/07 02:51:49;;;;;;;8.45;1.00;;;;;;;;;;5100084;28;20398;-67
2022/12/07 02:54:17;;;;;;;4.85;0.90;;;;;;;;;;5099682;28;21476;-67
2022/12/07 02:56:43;;;;;;;14.23;1.42;;;;;;;;;;5080589;28;20035;-68
2022/12/07 02:59:28;;;;;;;11.00;1.02;;;;;;;;;;5082105;28;20058;-68
2022/12/07 03:02:01;;;;;;;4.80;0.80;;;;;;;;;;5099370;28;20088;-68
2022/12/07 03:04:28;;;;;;;6.38;1.85;;;;;;;;;;5099423;28;20142;-68
2022/12/07 03:06:59;;;;;;;7.57;1.20;;;;;;;;;;5082063;28;20070;-68
2022/12/07 03:09:35;;;;;;;13.68;1.40;;;;;;;;;;5080568;28;20789;-68
2022/12/07 03:12:06;;;;;;;12.23;1.60;;;;;;;;;;5099431;28;20044;-68
2022/12/07 03:14:36;;;;;;;10.55;1.08;;;;;;;;;;5095765;28;20043;-67
2022/12/07 03:17:06;;;;;;;10.98;1.88;;;;;;;;;;5097868;28;20104;-67
2022/12/07 03:19:34;;;;;;;8.57;1.20;;;;;;;;;;5081190;28;20046;-67
2022/12/07 03:22:02;;;;;;;10.68;1.27;;;;;;;;;;5079104;28;20515;-68
2022/12/07 03:24:31;;;;;;;14.00;2.10;;;;;;;;;;5080721;28;20036;-67
2022/12/07 03:27:02;;;;;;;9.20;1.52;;;;;;;;;;5097626;28;20070;-68
2022/12/07 03:29:30;;;;;;;21.15;1.83;;;;;;;;;;5078665;28;20093;-67
2022/12/07 03:32:01;;;;;;;16.80;1.73;;;;;;;;;;5082315;28;20091;-67
2022/12/07 03:34:30;;;;;;;10.70;1.25;;;;;;;;;;5082329;28;20047;-67
2022/12/07 03:37:01;;;;;;;10.23;1.63;;;;;;;;;;5100717;28;20051;-68
2022/12/07 03:39:34;;;;;;;12.65;1.75;;;;;;;;;;5080550;28;20039;-67
2022/12/07 03:42:01;;;;;;;16.15;2.40;;;;;;;;;;5099318;28;20122;-67
2022/12/07 03:44:28;;;;;;;12.00;2.10;;;;;;;;;;5075246;28;20403;-67
2022/12/07 03:46:55;;;;;;;17.60;2.65;;;;;;;;;;5095650;28;20399;-67
2022/12/07 03:49:27;;;;;;;26.58;3.28;;;;;;;;;;5101986;28;20050;-67
2022/12/07 03:51:57;;;;;;;14.27;2.10;;;;;;;;;;5099226;28;20384;-68
2022/12/07 03:54:27;;;;;;;11.18;1.20;;;;;;;;;;5101474;28;20951;-67
2022/12/07 03:56:54;;;;;;;17.08;1.98;;;;;;;;;;5099338;28;20035;-67
2022/12/07 03:59:20;;;;;;;16.85;1.73;;;;;;;;;;5098258;28;20032;-67
2022/12/07 04:01:51;;;;;;;12.57;1.52;;;;;;;;;;5079735;28;20105;-67
2022/12/07 04:04:18;;;;;;;13.32;1.92;;;;;;;;;;5095561;28;20043;-67
2022/12/07 04:06:44;;;;;;;10.68;1.77;;;;;;;;;;5096687;28;20051;-67
2022/12/07 04:09:10;;;;;;;15.20;1.80;;;;;;;;;;5098500;28;20171;-67
2022/12/07 04:11:36;;;;;;;18.73;1.80;;;;;;;;;;5095478;28;20044;-67
2022/12/07 04:14:18;;;;;;;9.40;1.33;;;;;;;;;;5080451;28;20070;-67
2022/12/07 04:16:45;;;;;;;8.38;1.13;;;;;;;;;;5094862;28;20059;-68
2022/12/07 04:19:11;;;;;;;9.90;2.28;;;;;;;;;;5076864;28;20602;-67
2022/12/07 04:21:37;;;;;;;13.93;1.50;;;;;;;;;;5077420;28;20048;-67
2022/12/07 04:24:04;;;;;;;18.25;2.15;;;;;;;;;;5097306;28;20150;-68
2022/12/07 04:26:30;;;;;;;12.63;1.88;;;;;;;;;;5095126;28;20049;-67
2022/12/07 04:28:56;;;;;;;8.65;1.40;;;;;;;;;;5100462;28;20048;-68
2022/12/07 04:31:22;;;;;;;11.88;1.88;;;;;;;;;;5099386;28;20035;-68
2022/12/07 04:33:48;;;;;;;10.95;1.35;;;;;;;;;;5098855;28;20036;-67
2022/12/07 04:36:15;;;;;;;6.85;1.00;;;;;;;;;;5098802;28;20055;-67
2022/12/07 04:38:41;;;;;;;11.23;1.45;;;;;;;;;;5082031;28;20280;-67
2022/12/07 04:41:07;;;;;;;15.00;1.77;;;;;;;;;;5100252;28;20196;-68
2022/12/07 04:43:34;;;;;;;7.43;1.30;;;;;;;;;;5098844;28;20059;-67
2022/12/07 04:46:00;;;;;;;11.55;1.40;;;;;;;;;;5098873;28;20117;-67
2022/12/07 04:48:26;;;;;;;7.10;1.15;;;;;;;;;;5081389;28;20188;-67
2022/12/07 04:50:52;;;;;;;14.18;1.67;;;;;;;;;;5101242;27;20031;-67
2022/12/07 04:53:19;;;;;;;9.52;2.80;;;;;;;;;;5080953;28;20040;-67
2022/12/07 04:55:45;;;;;;;12.15;1.38;;;;;;;;;;5096472;28;20035;-67
2022/12/07 04:58:12;;;;;;;14.35;1.75;;;;;;;;;;5076187;28;20825;-67
2022/12/07 05:00:38;;;;;;;6.80;0.90;;;;;;;;;;5081143;28;20127;-68
2022/12/07 05:03:04;;;;;;;6.57;1.20;;;;;;;;;;5095803;28;20075;-68
2022/12/07 05:05:31;;;;;;;10.43;1.65;;;;;;;;;;5100066;28;20043;-67
2022/12/07 05:07:57;;;;;;;12.55;1.38;;;;;;;;;;5099382;28;20048;-68
2022/12/07 05:10:23;;;;;;;7.35;0.95;;;;;;;;;;5097141;28;20493;-68
2022/12/07 05:12:49;;;;;;;19.30;1.98;;;;;;;;;;5096861;28;20528;-68
2022/12/07 05:15:16;;;;;;;16.33;1.42;;;;;;;;;;5096312;28;20517;-67
2022/12/07 05:17:42;;;;;;;12.88;1.50;;;;;;;;;;5079510;28;20051;-67
2022/12/07 05:20:09;;;;;;;7.20;1.55;;;;;;;;;;5094872;28;20300;-67
2022/12/07 05:22:35;;;;;;;18.67;1.83;;;;;;;;;;5077193;28;20078;-68
2022/12/07 05:25:01;;;;;;;16.65;4.75;;;;;;;;;;5095881;28;20118;-67
2022/12/07 05:27:27;;;;;;;16.88;3.22;;;;;;;;;;5094665;28;20048;-67
2022/12/07 05:29:54;;;;;;;14.50;1.67;;;;;;;;;;5095181;28;20043;-67
2022/12/07 05:32:20;;;;;;;6.63;1.25;;;;;;;;;;5097123;28;20071;-67
2022/12/07 05:34:46;;;;;;;8.82;0.98;;;;;;;;;;5097347;28;20138;-67
2022/12/07 05:37:12;;;;;;;8.82;1.10;;;;;;;;;;5074056;28;20055;-72
2022/12/07 05:39:40;;;;;;;4.60;0.60;;;;;;;;;;5077895;28;20048;-67
2022/12/07 05:42:12;;;;;;;3.35;0.60;;;;;;;;;;5097356;28;20052;-68
2022/12/07 05:44:39;;;;;;;6.45;0.80;;;;;;;;;;5081430;28;20069;-68
2022/12/07 05:47:05;;;;;;;5.75;0.80;;;;;;;;;;5079940;28;20043;-67
2022/12/07 05:49:31;;;;;;;3.17;1.00;;;;;;;;;;5099398;28;20135;-68
2022/12/07 05:51:58;;;;;;;5.07;0.80;;;;;;;;;;5095837;28;20039;-68
2022/12/07 05:54:24;;;;;;;7.13;1.02;;;;;;;;;;5096195;28;20036;-68
2022/12/07 05:56:50;;;;;;;6.38;1.10;;;;;;;;;;5098889;28;20117;-68
2022/12/07 05:59:22;;;;;;;5.95;1.13;;;;;;;;;;5097432;28;20456;-69
2022/12/07 06:01:49;;;;;;;10.25;1.42;;;;;;;;;;5098990;28;20035;-67
2022/12/07 06:04:15;;;;;;;9.07;1.27;;;;;;;;;;5066111;28;20055;-68
2022/12/07 06:06:42;;;;;;;7.28;1.58;;;;;;;;;;5099389;28;20493;-68
2022/12/07 06:09:08;;;;;;;16.80;2.05;;;;;;;;;;5066239;28;20043;-68
2022/12/07 06:14:19;;;;;;;10.65;1.73;;;;;;;;;;5098134;28;20503;-67
2022/12/07 06:16:45;;;;;;;13.15;1.92;;;;;;;;;;5098921;28;20043;-67
2022/12/07 06:19:11;;;;;;;13.02;1.67;;;;;;;;;;5076412;28;20711;-67
2022/12/07 06:21:37;;;;;;;15.63;1.65;;;;;;;;;;5081767;28;20044;-67
2022/12/07 06:24:04;;;;;;;10.43;1.52;;;;;;;;;;5079119;28;20073;-67
2022/12/07 06:26:30;;;;;;;12.25;1.50;;;;;;;;;;5100825;28;20043;-66
2022/12/07 06:28:56;;;;;;;9.07;1.27;;;;;;;;;;5098910;28;20040;-66
2022/12/07 06:31:22;;;;;;;11.27;1.77;;;;;;;;;;5100789;28;20498;-66
2022/12/07 06:33:48;;;;;;;13.05;1.65;;;;;;;;;;5102954;28;20063;-66
2022/12/07 06:36:15;;;;;;;9.90;1.50;;;;;;;;;;5108599;28;20039;-66
2022/12/07 06:38:41;;;;;;;13.18;1.90;;;;;;;;;;5105691;28;20048;-67
2022/12/07 06:41:07;;;;;;;11.88;1.40;;;;;;;;;;5102021;28;20063;-66
2022/12/07 06:43:33;;;;;;;16.50;2.85;;;;;;;;;;5107010;28;20048;-66
2022/12/07 06:46:00;;;;;;;12.45;1.60;;;;;;;;;;5087872;28;20495;-66
2022/12/07 06:48:26;;;;;;;17.33;1.77;;;;;;;;;;5106765;28;20481;-66
2022/12/07 06:50:52;;;;;;;18.08;2.78;;;;;;;;;;5084247;28;20614;-66
2022/12/07 06:53:18;;;;;;;12.50;1.60;;;;;;;;;;5101484;28;20044;-66
2022/12/07 06:55:44;;;;;;;20.27;2.42;;;;;;;;;;5100447;28;20368;-66
2022/12/07 06:58:10;;;;;;;19.38;2.33;;;;;;;;;;5083889;28;20122;-66
2022/12/07 07:00:36;;;;;;;25.75;2.85;;;;;;;;;;5104739;28;20044;-66
2022/12/07 07:03:03;;;;;;;10.77;1.52;;;;;;;;;;5086120;28;20486;-66
2022/12/07 07:05:29;;;;;;;11.27;1.95;;;;;;;;;;5104720;28;20074;-66
2022/12/07 07:07:55;;;;;;;18.48;2.40;;;;;;;;;;5107662;28;20040;-66
2022/12/07 07:10:21;;;;;;;21.42;1.85;;;;;;;;;;5106306;28;20555;-66
2022/12/07 07:12:47;;;;;;;18.55;2.80;;;;;;;;;;5108703;28;20525;-66
2022/12/07 07:15:14;;;;;;;13.52;1.75;;;;;;;;;;5089877;28;20031;-66
2022/12/07 07:17:40;;;;;;;14.75;1.90;;;;;;;;;;5107497;28;20466;-66
2022/12/07 07:20:06;;;;;;;13.93;2.05;;;;;;;;;;5107890;28;20047;-66
2022/12/07 07:22:32;;;;;;;18.85;2.42;;;;;;;;;;5107717;28;20032;-66
2022/12/07 07:24:59;;;;;;;15.00;2.08;;;;;;;;;;5107681;28;20043;-66
2022/12/07 07:27:25;;;;;;;20.33;2.17;;;;;;;;;;5104796;28;20170;-66
2022/12/07 07:29:51;;;;;;;14.38;2.47;;;;;;;;;;5103665;28;20116;-66
2022/12/07 07:32:17;;;;;;;13.43;1.85;;;;;;;;;;5087254;28;20040;-66
2022/12/07 07:34:43;;;;;;;13.43;1.67;;;;;;;;;;5101634;28;20229;-66
2022/12/07 07:37:12;;;;;;;18.70;1.83;;;;;;;;;;5102832;28;20044;-66
2022/12/07 07:39:38;;;;;;;15.07;2.28;;;;;;;;;;5104502;28;20047;-66
2022/12/07 07:42:05;;;;;;;10.15;1.75;;;;;;;;;;5105811;28;20069;-66
2022/12/07 07:44:31;;;;;;;12.18;1.95;;;;;;;;;;5100154;28;20083;-66
2022/12/07 07:46:57;;;;;;;11.82;1.70;;;;;;;;;;5085254;28;20044;-66
2022/12/07 07:49:23;;;;;;;15.27;2.38;;;;;;;;;;5102166;28;20039;-66
2022/12/07 07:51:49;;;;;;;12.20;1.98;;;;;;;;;;5104565;28;20109;-66
2022/12/07 07:54:16;;;;;;;15.18;1.77;;;;;;;;;;5102683;28;20122;-66
2022/12/07 07:56:42;;;;;;;12.35;1.50;;;;;;;;;;5110964;28;20340;-66
2022/12/07 07:59:08;;;;;;;15.60;2.35;;;;;;;;;;5108169;28;20415;-66
2022/12/07 08:01:34;;;;;;;32.15;3.75;;;;;;;;;;5109894;28;20035;-66
2022/12/07 08:04:01;;;;;;;11.82;1.33;;;;;;;;;;5088143;28;20183;-66
2022/12/07 08:06:27;;;;;;;17.10;1.80;;;;;;;;;;5105891;28;20054;-66
2022/12/07 08:08:53;;;;;;;16.73;1.65;;;;;;;;;;5086695;28;20402;-66
2022/12/07 08:11:19;;;;;;;9.05;1.98;;;;;;;;;;5084056;28;20482;-66
2022/12/07 08:13:46;;;;;;;11.63;1.42;;;;;;;;;;5104092;28;20039;-66
2022/12/07 08:16:14;;;;;;;6.57;1.13;;;;;;;;;;5086904;28;20040;-67
2022/12/07 08:18:40;;;;;;;7.18;1.27;;;;;;;;;;5105783;28;20039;-67
2022/12/07 08:21:08;;;;;;;11.77;1.55;;;;;;;;;;5106257;28;20035;-66
2022/12/07 08:23:34;;;;;;;6.57;1.60;;;;;;;;;;5108560;27;20056;-67
2022/12/07 08:26:02;;;;;;;11.70;1.42;;;;;;;;;;5088000;28;20035;-67
2022/12/07 08:28:29;;;;;;;11.55;2.55;;;;;;;;;;5087612;28;20055;-67
2022/12/07 08:31:02;;;;;;;15.18;1.70;;;;;;;;;;5107022;28;20031;-67
2022/12/07 08:33:28;;;;;;;13.80;2.40;;;;;;;;;;5104661;28;20344;-67
2022/12/07 08:35:55;;;;;;;14.35;1.70;;;;;;;;;;5084367;28;20085;-67
2022/12/07 08:38:21;;;;;;;9.57;1.73;;;;;;;;;;5106683;28;20047;-67
2022/12/07 08:40:57;;;;;;;15.30;1.88;;;;;;;;;;5107379;28;20451;-67
2022/12/07 08:43:23;;;;;;;11.52;1.77;;;;;;;;;;5106113;28;20040;-67
2022/12/07 08:45:54;;;;;;;11.23;1.98;;;;;;;;;;5088879;28;20054;-67
2022/12/07 08:48:24;;;;;;;14.20;2.30;;;;;;;;;;5108063;27;20051;-67
2022/12/07 08:50:50;;;;;;;9.65;1.60;;;;;;;;;;5088024;28;20063;-67
2022/12/07 08:53:17;;;;;;;8.23;1.65;;;;;;;;;;5105444;28;20055;-66
2022/12/07 08:55:44;;;;;;;9.25;1.77;;;;;;;;;;5089900;28;20497;-67
2022/12/07 08:58:10;;;;;;;6.35;1.38;;;;;;;;;;5087868;28;20058;-67
2022/12/07 09:00:36;;;;;;;10.20;1.35;;;;;;;;;;5103837;28;20044;-67
2022/12/07 09:03:03;;;;;;;13.50;2.03;;;;;;;;;;5105074;28;20336;-67
2022/12/07 09:05:29;;;;;;;14.02;1.73;;;;;;;;;;5104180;28;20075;-66
2022/12/07 09:07:57;;;;;;;15.75;1.73;;;;;;;;;;5105522;28;20097;-66
2022/12/07 09:10:23;;;;;;;13.07;1.88;;;;;;;;;;5084614;28;20500;-67
2022/12/07 09:12:49;;;;;;;11.40;2.00;;;;;;;;;;5105507;28;20451;-67
2022/12/07 09:15:15;;;;;;;13.38;1.75;;;;;;;;;;5085293;28;20039;-67
2022/12/07 09:17:41;;;;;;;9.95;1.40;;;;;;;;;;5107351;28;20051;-66
2022/12/07 09:20:08;;;;;;;13.50;1.45;;;;;;;;;;5105552;28;20093;-67
2022/12/07 09:22:34;;;;;;;11.52;2.10;;;;;;;;;;5105861;28;20040;-67
2022/12/07 09:25:00;;;;;;;22.17;2.95;;;;;;;;;;5107784;28;20451;-67
2022/12/07 09:27:27;;;;;;;12.93;1.70;;;;;;;;;;5105356;28;20805;-67
2022/12/07 09:29:53;;;;;;;7.43;1.65;;;;;;;;;;5087575;28;20082;-67
2022/12/07 09:32:20;;;;;;;14.52;1.67;;;;;;;;;;5107211;28;20040;-67
2022/12/07 09:34:46;;;;;;;14.52;2.08;;;;;;;;;;5106840;28;20075;-66
2022/12/07 09:37:12;;;;;;;15.73;2.40;;;;;;;;;;5103809;28;20320;-80
2022/12/07 09:39:39;;;;;;;15.98;2.08;;;;;;;;;;5085759;28;20032;-77
2022/12/07 09:42:06;;;;;;;12.98;2.40;;;;;;;;;;5091711;28;20419;-66
2022/12/07 09:44:34;;;;;;;12.45;2.10;;;;;;;;;;5087059;28;20204;-65
2022/12/07 09:47:01;;;;;;;22.55;2.88;;;;;;;;;;5087666;28;20116;-67
2022/12/07 09:49:29;;;;;;;12.38;1.65;;;;;;;;;;5105621;28;20048;-67
2022/12/07 09:52:08;;;;;;;11.45;2.25;;;;;;;;;;5105621;28;20039;-67
2022/12/07 09:54:37;;;;;;;26.20;4.18;;;;;;;;;;5084043;28;20036;-67
2022/12/07 09:57:03;;;;;;;9.85;1.10;;;;;;;;;;5105708;28;20039;-67
2022/12/07 09:59:29;;;;;;;15.95;1.67;;;;;;;;;;5087926;28;20052;-67
2022/12/07 10:01:56;;;;;;;7.32;1.55;;;;;;;;;;5086387;28;20055;-67
2022/12/07 10:04:24;;;;;;;7.68;1.60;;;;;;;;;;5103703;28;20077;-67
2022/12/07 10:06:51;;;;;;;15.70;3.22;;;;;;;;;;5105787;28;20039;-67
2022/12/07 10:09:19;;;;;;;10.35;1.77;;;;;;;;;;5106032;28;20039;-67
2022/12/07 10:12:03;;;;;;;10.27;1.35;;;;;;;;;;5084664;28;20101;-67
2022/12/07 10:14:30;;;;;;;8.35;1.10;;;;;;;;;;5103862;28;20056;-67
2022/12/07 10:16:56;;;;;;;6.18;1.42;;;;;;;;;;5103697;28;20126;-67
2022/12/07 10:19:25;;;;;;;13.25;1.58;;;;;;;;;;5098360;28;20451;-68
2022/12/07 10:22:02;;;;;;;10.52;1.73;;;;;;;;;;5097320;28;20040;-67
2022/12/07 10:24:28;;;;;;;7.18;0.90;;;;;;;;;;5099757;28;20039;-67
2022/12/07 10:26:54;;;;;;;3.20;0.70;;;;;;;;;;5099824;28;20389;-67
2022/12/07 10:29:30;;;;;;;3.13;0.52;;;;;;;;;;5099805;28;20036;-67
2022/12/07 10:32:04;;;;;;;2.88;0.50;;;;;;;;;;5099816;28;20054;-67
2022/12/07 10:34:33;;;;;;;5.82;0.75;;;;;;;;;;5098547;28;20047;-67
2022/12/07 10:37:09;;;;;;;2.03;0.47;;;;;;;;;;5107652;28;20513;-67
2022/12/07 10:39:43;;;;;;;7.22;0.80;;;;;;;;;;5088750;28;20035;-66
2022/12/07 10:42:16;;;;;;;3.45;0.70;;;;;;;;;;5087883;28;20566;-67
2022/12/07 10:44:43;;;;;;;;;;;;;;;;;;5107461;28;20098;-67
2022/12/07 10:47:12;;;;;;;3.55;0.85;;;;;;;;;;5085044;28;19920;-67
2022/12/07 10:49:47;;;;;;;7.05;0.90;;;;;;;;;;5104978;28;20044;-66
2022/12/07 10:52:14;;;;;;;3.35;0.63;;;;;;;;;;5079365;28;20139;-67
2022/12/07 10:54:46;;;;;;;5.10;0.70;;;;;;;;;;5087058;28;20039;-68
2022/12/07 10:57:12;;;;;;;6.28;1.23;;;;;;;;;;5086177;28;20035;-67
2022/12/07 10:59:39;;;;;;;3.83;0.60;;;;;;;;;;5087293;28;20103;-67
2022/12/07 11:02:21;;;;;;;2.97;0.98;;;;;;;;;;5106843;27;20123;-67
2022/12/07 11:04:57;;;;;;;6.10;0.68;;;;;;;;;;5088846;28;20056;-67
2022/12/07 11:07:33;;;;;;;5.05;0.60;;;;;;;;;;5105638;28;20050;-66
2022/12/07 11:10:09;;;;;;;3.10;0.70;;;;;;;;;;5106678;28;20054;-67
2022/12/07 11:12:50;;;;;;;7.63;1.55;;;;;;;;;;5108322;28;20040;-67
2022/12/07 11:15:20;;;;;;;5.07;1.35;;;;;;;;;;5106127;28;20043;-67
2022/12/07 11:17:46;;;;;;;5.30;1.00;;;;;;;;;;5105968;28;20088;-71
2022/12/07 11:20:16;;;;;;;6.88;0.88;;;;;;;;;;5106771;28;20035;-67
2022/12/07 11:22:51;;;;;;;8.98;1.08;;;;;;;;;;5089446;28;20039;-68
2022/12/07 11:25:22;;;;;;;8.20;1.05;;;;;;;;;;5107421;28;20046;-68
2022/12/07 11:27:55;;;;;;;7.80;1.25;;;;;;;;;;5087276;28;20064;-68
2022/12/07 11:30:24;;;;;;;5.90;1.35;;;;;;;;;;5085800;28;20048;-68
2022/12/07 11:33:06;;;;;;;9.63;1.02;;;;;;;;;;5105721;28;20047;-68
2022/12/07 11:35:37;;;;;;;4.03;0.95;;;;;;;;;;5106863;28;20115;-68
2022/12/07 11:38:10;;;;;;;5.63;1.35;;;;;;;;;;5100671;28;20608;-68
2022/12/07 11:40:37;;;;;;;7.80;1.17;;;;;;;;;;5085903;28;21680;-67
2022/12/07 11:43:07;;;;;;;15.80;2.05;;;;;;;;;;5103637;28;20391;-67
2022/12/07 11:45:35;;;;;;;9.98;2.38;;;;;;;;;;5102152;28;20096;-67
2022/12/07 11:48:03;;;;;;;10.30;1.02;;;;;;;;;;5104389;28;20048;-67
2022/12/07 11:50:39;;;;;;;7.70;1.58;;;;;;;;;;5105138;27;20032;-67
2022/12/07 11:53:06;;;;;;;5.15;0.80;;;;;;;;;;5104890;28;20067;-67
2022/12/07 11:55:41;;;;;;;3.00;0.77;;;;;;;;;;5082475;28;20097;-66
2022/12/07 11:58:18;;;;;;;6.18;0.95;;;;;;;;;;5085249;28;20052;-66
2022/12/07 12:00:44;;;;;;;9.07;1.38;;;;;;;;;;5081814;28;20883;-67
2022/12/07 12:03:14;;;;;;;5.32;0.90;;;;;;;;;;5100503;28;20096;-67
2022/12/07 12:05:40;;;;;;;9.63;1.38;;;;;;;;;;5100049;28;20347;-67
2022/12/07 12:08:06;;;;;;;11.23;1.05;;;;;;;;;;5105147;28;20424;-67
2022/12/07 12:10:38;;;;;;;8.13;1.10;;;;;;;;;;5084787;28;20060;-67
2022/12/07 12:13:20;;;;;;;9.75;1.10;;;;;;;;;;5085623;28;21977;-67
2022/12/07 12:15:56;;;;;;;6.82;0.75;;;;;;;;;;5066625;28;20046;-66
2022/12/07 12:18:25;;;;;;;4.25;0.65;;;;;;;;;;5083512;28;20066;-66
2022/12/07 12:20:56;;;;;;;4.50;1.15;;;;;;;;;;5077495;28;20051;-67
2022/12/07 12:23:22;;;;;;;8.48;1.25;;;;;;;;;;5100921;28;20079;-66
2022/12/07 12:25:51;;;;;;;6.15;0.90;;;;;;;;;;5104978;28;20043;-67
2022/12/07 12:28:24;;;;;;;7.40;0.88;;;;;;;;;;5085654;28;20059;-67
2022/12/07 12:31:08;;;;;;;8.07;1.07;;;;;;;;;;5100351;28;20043;-68
2022/12/07 12:33:35;;;;;;;4.78;0.80;;;;;;;;;;5095215;28;21664;-68
2022/12/07 12:36:16;;;;;;;6.93;1.15;;;;;;;;;;5097548;28;20052;-67
2022/12/07 12:38:49;;;;;;;4.55;0.77;;;;;;;;;;5076773;28;20071;-68
2022/12/07 12:41:34;;;;;;;2.85;0.80;;;;;;;;;;5100514;28;20066;-70
2022/12/07 12:44:00;;;;;;;5.13;0.90;;;;;;;;;;5081037;28;20498;-71
2022/12/07 12:46:29;;;;;;;8.52;2.22;;;;;;;;;;5071842;28;20433;-71
2022/12/07 12:49:14;;;;;;;9.27;1.67;;;;;;;;;;5106009;28;20526;-70
2022/12/07 12:51:42;;;;;;;6.90;2.00;;;;;;;;;;5085300;28;20043;-70
2022/12/07 12:54:20;;;;;;;6.82;1.70;;;;;;;;;;5106543;28;20067;-69
2022/12/07 12:56:52;;;;;;;11.48;3.97;;;;;;;;;;5086842;28;20067;-69
2022/12/07 12:59:24;;;;;;;11.55;3.53;;;;;;;;;;5085502;28;20503;-70
2022/12/07 13:01:55;;;;;;;11.80;3.38;;;;;;;;;;5104239;28;20085;-70
2022/12/07 13:04:21;;;;;;;13.38;4.95;;;;;;;;;;5085456;28;20078;-70
2022/12/07 13:06:47;;;;;;;13.00;2.75;;;;;;;;;;5099491;28;20047;-70
2022/12/07 13:09:21;;;;;;;9.68;2.10;;;;;;;;;;5105844;28;20542;-70
2022/12/07 13:11:47;;;;;;;6.53;1.75;;;;;;;;;;5087232;28;20055;-70
2022/12/07 13:14:32;;;;;;;9.30;2.00;;;;;;;;;;5086977;28;20058;-70
2022/12/07 13:16:58;;;;;;;4.07;0.95;;;;;;;;;;5107198;28;20059;-70
2022/12/07 13:19:43;;;;;;;8.55;1.10;;;;;;;;;;5087645;28;20127;-70
2022/12/07 13:22:28;;;;;;;11.90;1.77;;;;;;;;;;5103057;28;20368;-70
2022/12/07 13:24:56;;;;;;;8.20;1.92;;;;;;;;;;5084830;28;20043;-70
2022/12/07 13:27:23;;;;;;;10.52;1.38;;;;;;;;;;5089380;28;20039;-70
2022/12/07 13:29:49;;;;;;;13.00;1.60;;;;;;;;;;5105925;28;20511;-70
2022/12/07 13:32:23;;;;;;;5.65;1.20;;;;;;;;;;5086829;28;20044;-70
2022/12/07 13:34:50;;;;;;;8.10;1.00;;;;;;;;;;5085520;28;20664;-70
2022/12/07 13:37:21;;;;;;;6.05;1.00;;;;;;;;;;5087848;28;20102;-70
2022/12/07 13:39:48;;;;;;;7.07;1.30;;;;;;;;;;5068580;28;20043;-70
2022/12/07 13:42:26;;;;;;;7.57;1.13;;;;;;;;;;5104995;28;20061;-70
2022/12/07 13:44:52;;;;;;;7.22;0.98;;;;;;;;;;5088469;28;20131;-70
2022/12/07 13:47:22;;;;;;;8.95;1.10;;;;;;;;;;5104684;28;20399;-70
2022/12/07 13:49:49;;;;;;;5.63;0.80;;;;;;;;;;5083458;28;20040;-70
2022/12/07 13:52:18;;;;;;;5.43;0.95;;;;;;;;;;5087826;28;20062;-70
2022/12/07 13:54:46;;;;;;;5.68;0.88;;;;;;;;;;5104449;28;20043;-70
2022/12/07 13:57:12;;;;;;;2.65;0.50;;;;;;;;;;5083998;28;20044;-70
2022/12/07 13:59:38;;;;;;;6.75;0.90;;;;;;;;;;5084804;28;20138;-70
2022/12/07 14:02:19;;;;;;;2.33;0.60;;;;;;;;;;5086163;28;20040;-70
2022/12/07 14:04:46;;;;;;;3.17;0.85;;;;;;;;;;5101369;28;20142;-70
2022/12/07 14:07:19;;;;;;;5.20;0.70;;;;;;;;;;5085886;28;20092;-70
2022/12/07 14:09:53;;;;;;;4.95;0.60;;;;;;;;;;5103476;28;20043;-70
2022/12/07 14:12:20;;;;;;;6.90;0.82;;;;;;;;;;5108976;28;20418;-70
2022/12/07 14:14:48;;;;;;;2.60;0.60;;;;;;;;;;5107780;28;20032;-70
2022/12/07 14:17:15;;;;;;;4.03;0.55;;;;;;;;;;5108500;28;20039;-70
2022/12/07 14:19:41;;;;;;;5.70;0.50;;;;;;;;;;5107115;28;20047;-70
2022/12/07 14:22:09;;;;;;;5.15;0.68;;;;;;;;;;5109657;28;20039;-70
2022/12/07 14:24:43;;;;;;;4.80;0.90;;;;;;;;;;5109381;27;20042;-68
2022/12/07 14:27:21;;;;;;;9.85;0.98;;;;;;;;;;5082457;28;20044;-68
2022/12/07 14:29:47;;;;;;;7.05;2.15;;;;;;;;;;5070172;27;20058;-69
2022/12/07 14:32:20;;;;;;;11.20;1.15;;;;;;;;;;5104712;28;20044;-68
2022/12/07 14:34:53;;;;;;;8.32;1.00;;;;;;;;;;5088825;28;20062;-67
2022/12/07 14:37:19;;;;;;;6.95;0.95;;;;;;;;;;5105015;28;20039;-67
2022/12/07 14:39:46;;;;;;;4.57;0.98;;;;;;;;;;5085621;28;20105;-67
2022/12/07 14:42:12;;;;;;;6.22;0.80;;;;;;;;;;5104132;28;20513;-67
2022/12/07 14:44:38;;;;;;;6.28;1.00;;;;;;;;;;5103978;28;20089;-67
2022/12/07 14:47:04;;;;;;;1.75;0.57;;;;;;;;;;5084131;28;20035;-69